Terminal Aerodrome Forecast
Issued by NWS

Home | Current Version | Previous Version | Text Only | Print | Product List | Glossary On
Versions: 1 2 3 4 5 6 7 8 9 10 11 12 13
000
FTUS42 KMLB 290500 RRA
TAFTIX
TAF
KTIX 290542Z 2906/2924 12004KT P6SM SCT250
     FM291200 12004KT P6SM SCT020
     FM291600 09008KT P6SM VCTS SCT040CB
     FM292000 12003KT P6SM SCT040
      AMD NOT SKED TIL 291100=

USA.gov is the U.S. government's official web portal to all federal, state and local government web resources and services.